Time;durP1;ratioP1;P1;durP2;ratioP2;P2;SDS_P1;SDS_P2;PMS_P1;PMS_P2;Temp;Humidity;BMP_temperature;BMP_pressure;BME280_temperature;BME280_humidity;BME280_pressure;Samples;Min_cycle;Max_cycle;Signal;HPM_P1;HPM_P2
2020/12/02 14:29:15;;;;;;;52.07;26.43;;;;;;;-0.18;68.97;99506.52;126071;1093;104513;-73
2020/12/02 14:31:42;;;;;;;45.20;22.37;;;;;;;-0.22;68.70;99505.73;126034;1093;104525;-73
2020/12/02 14:34:09;;;;;;;47.77;23.20;;;;;;;-0.24;69.23;99502.30;126006;1093;104484;-74
2020/12/02 14:36:36;;;;;;;51.67;24.93;;;;;;;-0.26;69.33;99503.23;125961;1093;104437;-74
2020/12/02 14:39:05;;;;;;;51.40;25.20;;;;;;;-0.30;68.93;99505.03;126007;1093;104574;-78
2020/12/02 14:41:32;;;;;;;51.65;25.27;;;;;;;-0.29;68.62;99504.14;126040;1093;104411;-76
2020/12/02 14:43:59;;;;;;;49.25;25.35;;;;;;;-0.30;68.93;99494.58;126038;1093;104541;-75
2020/12/02 14:46:26;;;;;;;49.67;23.57;;;;;;;-0.31;69.46;99500.70;126041;1093;104481;-76
2020/12/02 14:48:53;;;;;;;49.35;23.22;;;;;;;-0.33;68.92;99494.64;125851;1093;104480;-75
2020/12/02 14:51:21;;;;;;;46.57;22.30;;;;;;;-0.37;68.95;99496.47;125993;1093;104631;-78
2020/12/02 14:53:48;;;;;;;47.77;21.80;;;;;;;-0.40;69.06;99493.92;125991;1093;104548;-79
2020/12/02 14:56:34;;;;;;;46.10;23.13;;;;;;;-0.46;69.14;99491.43;126035;1093;104518;-78
2020/12/02 14:59:20;;;;;;;49.67;23.40;;;;;;;-0.52;68.89;99499.39;125982;1093;104488;-80
2020/12/02 15:01:48;;;;;;;53.17;24.33;;;;;;;-0.57;69.00;99494.27;126025;1098;104484;-77
2020/12/02 15:04:14;;;;;;;43.80;21.55;;;;;;;-0.59;68.59;99498.67;125683;1096;104513;-76
2020/12/02 15:07:24;;;;;;;48.70;23.10;;;;;;;-0.66;69.12;99503.16;125905;1098;104522;-75
2020/12/02 15:10:17;;;;;;;47.70;22.60;;;;;;;-0.70;69.01;99508.46;125967;1099;104419;-75
2020/12/02 15:12:45;;;;;;;48.00;24.13;;;;;;;-0.80;69.08;99510.39;125746;1100;104568;-75
2020/12/02 15:15:24;;;;;;;49.40;23.47;;;;;;;-0.86;68.80;99505.28;126037;1098;104522;-76
2020/12/02 15:17:53;;;;;;;52.27;26.43;;;;;;;-0.93;68.93;99512.38;125932;1098;104452;-74
2020/12/02 15:20:27;;;;;;;50.53;24.00;;;;;;;-0.98;68.48;99509.84;125966;1098;104411;-75
2020/12/02 15:22:56;;;;;;;52.87;25.77;;;;;;;-1.03;68.53;99501.25;126001;1098;104461;-72
2020/12/02 15:25:24;;;;;;;57.63;26.77;;;;;;;-1.07;68.79;99508.27;125975;1098;104481;-75
2020/12/02 15:27:52;;;;;;;54.10;28.40;;;;;;;-1.09;68.56;99496.98;126053;1098;104582;-74
2020/12/02 15:30:31;;;;;;;55.23;26.87;;;;;;;-1.07;68.86;99500.43;125980;1098;104474;-74
2020/12/02 15:33:02;;;;;;;52.40;25.07;;;;;;;-1.07;68.96;99504.80;125777;1098;104521;-74
2020/12/02 15:35:29;;;;;;;45.77;23.03;;;;;;;-1.12;68.86;99504.02;125881;1100;104442;-75
2020/12/02 15:38:15;;;;;;;55.03;26.43;;;;;;;-1.17;68.57;99511.92;125998;1094;104416;-74
2020/12/02 15:40:50;;;;;;;59.37;30.30;;;;;;;-1.16;68.81;99507.58;125991;1098;104478;-75
2020/12/02 15:43:46;;;;;;;57.05;26.70;;;;;;;-1.15;68.77;99501.47;125963;1098;104531;-76
2020/12/02 15:46:25;;;;;;;54.27;25.90;;;;;;;-1.15;68.80;99498.86;125863;1098;104558;-76
2020/12/02 15:49:28;;;;;;;49.63;25.77;;;;;;;-1.17;68.46;99498.02;125874;1099;104736;-74
2020/12/02 15:52:01;;;;;;;47.23;24.77;;;;;;;-1.17;68.89;99498.02;125855;1096;104626;-74
2020/12/02 15:54:37;;;;;;;;;;;;;;;-1.18;69.04;99491.08;126039;1100;104512;-75
2020/12/02 15:57:25;;;;;;;50.83;25.63;;;;;;;-1.19;68.85;99498.03;125962;1093;104538;-76
2020/12/02 15:59:57;;;;;;;50.63;24.90;;;;;;;-1.19;68.76;99487.59;125827;1098;104485;-75
2020/12/02 16:02:26;;;;;;;49.20;24.73;;;;;;;-1.20;68.68;99486.74;125927;1098;104504;-75
2020/12/02 16:04:54;;;;;;;50.10;23.80;;;;;;;-1.20;68.42;99488.48;125968;1098;104478;-76
2020/12/02 16:07:32;;;;;;;49.47;25.03;;;;;;;-1.24;68.45;99484.23;126012;1093;104464;-76
2020/12/02 16:10:03;;;;;;;46.57;23.27;;;;;;;-1.32;68.35;99494.78;126089;1098;104438;-77
2020/12/02 16:12:31;;;;;;;51.23;25.60;;;;;;;-1.39;68.53;99493.16;126032;1098;104452;-75
2020/12/02 16:15:03;;;;;;;49.37;24.17;;;;;;;-1.44;68.27;99488.03;126070;1098;104419;-76
2020/12/02 16:17:29;;;;;;;55.90;27.67;;;;;;;-1.47;68.30;99492.45;126057;1098;104452;-76
2020/12/02 16:19:58;;;;;;;63.30;30.63;;;;;;;-1.46;69.31;99488.95;125881;1100;104468;-75
2020/12/02 16:22:26;;;;;;;46.03;22.37;;;;;;;-1.46;68.79;99495.02;126077;1099;104490;-75
2020/12/02 16:24:57;;;;;;;49.98;23.27;;;;;;;-1.48;68.34;99499.40;126022;1098;104522;-74
2020/12/02 16:27:24;;;;;;;46.60;22.30;;;;;;;-1.50;68.89;99499.44;126105;1098;104442;-76
2020/12/02 16:29:52;;;;;;;49.50;24.90;;;;;;;-1.55;68.87;99495.16;126093;1098;104574;-75
2020/12/02 16:32:21;;;;;;;45.30;24.07;;;;;;;-1.53;68.19;99499.48;126100;1098;104414;-74
2020/12/02 16:34:49;;;;;;;48.30;24.27;;;;;;;-1.53;68.53;99486.44;126102;1098;104551;-75
2020/12/02 16:37:35;;;;;;;53.63;26.50;;;;;;;-1.50;68.94;99489.00;125880;1100;104509;-77
2020/12/02 16:40:13;;;;;;;50.00;24.40;;;;;;;-1.51;69.21;99492.50;126123;1098;104245;-75
2020/12/02 16:42:57;;;;;;;45.70;21.73;;;;;;;-1.51;68.60;99487.28;126079;1100;104485;-75
2020/12/02 16:45:54;;;;;;;37.90;18.70;;;;;;;-1.53;68.75;99482.95;126118;1098;104459;-76
2020/12/02 16:48:33;;;;;;;55.47;25.60;;;;;;;-1.55;68.86;99485.61;126095;1099;104460;-75
2020/12/02 16:51:32;;;;;;;48.57;21.77;;;;;;;-1.54;68.80;99476.02;125959;1100;104464;-76
2020/12/02 16:54:14;;;;;;;51.33;23.37;;;;;;;-1.54;69.23;99470.80;126033;1098;104487;-75
2020/12/02 16:56:47;;;;;;;47.87;23.07;;;;;;;-1.53;69.14;99467.30;126102;1098;104436;-75
2020/12/02 16:59:19;;;;;;;50.65;23.45;;;;;;;-1.54;68.89;99469.06;126166;1098;104461;-75
2020/12/02 17:01:52;;;;;;;47.37;22.00;;;;;;;-1.56;68.79;99467.34;125956;1100;104916;-76
2020/12/02 17:04:26;;;;;;;41.33;20.97;;;;;;;-1.59;68.03;99467.40;126062;1098;104500;-75
2020/12/02 17:06:54;;;;;;;48.60;22.97;;;;;;;-1.68;67.97;99474.52;126085;1093;104478;-74
2020/12/02 17:09:22;;;;;;;46.67;21.90;;;;;;;-1.73;68.13;99471.11;126116;1098;104547;-75
2020/12/02 17:12:29;;;;;;;45.30;21.57;;;;;;;-1.77;68.26;99468.56;126063;1098;104500;-78
2020/12/02 17:15:15;;;;;;;48.50;23.63;;;;;;;-1.83;68.74;99465.16;126096;1098;104413;-76
2020/12/02 17:18:03;;;;;;;44.73;22.90;;;;;;;-1.84;69.31;99460.86;126041;1098;104947;-76
2020/12/02 17:20:53;;;;;;;48.30;22.90;;;;;;;-1.89;69.29;99467.89;126023;1098;104507;-78
2020/12/02 17:23:41;;;;;;;46.37;21.80;;;;;;;-1.94;68.77;99477.52;126064;1098;104443;-76
2020/12/02 17:26:41;;;;;;;44.60;21.10;;;;;;;-2.02;68.28;99467.19;126153;1098;104391;-75
2020/12/02 17:29:51;;;;;;;49.30;23.27;;;;;;;-2.08;68.14;99464.70;126124;1098;104558;-76
2020/12/02 17:32:42;;;;;;;46.43;22.53;;;;;;;-2.13;69.11;99475.17;125920;1098;104442;-77
2020/12/02 17:35:31;;;;;;;44.80;23.00;;;;;;;-2.18;69.17;99471.77;125929;1098;104433;-75
2020/12/02 17:38:35;;;;;;;47.33;23.27;;;;;;;-2.22;68.90;99472.69;125871;1098;104910;-76
2020/12/02 17:41:27;;;;;;;49.00;24.43;;;;;;;-2.27;68.40;99470.16;126012;1098;104535;-77
2020/12/02 17:44:15;;;;;;;50.00;24.97;;;;;;;-2.28;68.38;99463.22;126005;1093;104472;-75
2020/12/02 17:47:05;;;;;;;47.87;21.43;;;;;;;-2.29;68.53;99456.28;126068;1099;104455;-74
2020/12/02 17:49:40;;;;;;;51.60;26.43;;;;;;;-2.26;69.32;99451.03;126101;1098;104528;-78
2020/12/02 17:52:11;;;;;;;49.27;23.20;;;;;;;-2.20;68.59;99451.84;126000;1098;104433;-76
2020/12/02 17:54:41;;;;;;;47.97;22.03;;;;;;;-2.21;68.46;99448.34;126047;1098;104608;-77
2020/12/02 17:57:15;;;;;;;48.00;23.40;;;;;;;-2.21;69.60;99450.11;126128;1098;104619;-75
2020/12/02 17:59:42;;;;;;;50.13;25.77;;;;;;;-2.21;68.57;99444.90;125827;1101;104417;-75
2020/12/02 18:02:09;;;;;;;49.07;24.33;;;;;;;-2.22;68.65;99448.39;126062;1098;104525;-79
2020/12/02 18:04:58;;;;;;;53.23;25.00;;;;;;;-2.23;69.20;99444.06;126056;1098;104582;-79
2020/12/02 18:07:27;;;;;;;53.80;27.27;;;;;;;-2.26;68.58;99432.80;126026;1098;104449;-78
2020/12/02 18:10:23;;;;;;;45.67;22.57;;;;;;;-2.23;68.55;99436.23;126073;1098;104568;-77
2020/12/02 18:13:23;;;;;;;55.17;25.73;;;;;;;-2.26;69.75;99432.80;126027;1098;104407;-79
2020/12/02 18:15:59;;;;;;;51.97;23.57;;;;;;;-2.32;68.82;99427.66;126149;1098;104446;-79
2020/12/02 18:18:47;;;;;;;49.83;24.23;;;;;;;-2.37;68.66;99428.63;126229;1098;104516;-79
2020/12/02 18:21:44;;;;;;;48.93;23.20;;;;;;;-2.44;68.24;99430.44;125998;1098;104478;-78
2020/12/02 18:25:03;;;;;;;53.10;24.97;;;;;;;-2.51;68.22;99434.03;126033;1098;104506;-82
2020/12/02 18:27:37;;;;;;;50.47;25.57;;;;;;;-2.57;68.79;99425.41;125902;1098;104871;-80
2020/12/02 18:30:26;;;;;;;49.90;23.50;;;;;;;-2.60;68.08;99435.87;125987;1098;104522;-81
2020/12/02 18:33:22;;;;;;;49.33;23.10;;;;;;;-2.62;68.56;99431.54;126553;1098;104519;-80
2020/12/02 18:36:16;;;;;;;52.93;25.83;;;;;;;-2.61;69.61;99425.45;126063;1098;104529;-78
2020/12/02 18:39:01;;;;;;;51.70;26.47;;;;;;;-2.59;69.49;99415.88;125890;1099;104532;-79
2020/12/02 18:41:39;;;;;;;54.73;25.57;;;;;;;-2.57;68.55;99409.78;125892;1100;104531;-78
2020/12/02 18:44:10;;;;;;;55.73;26.07;;;;;;;-2.57;69.15;99414.99;125951;1098;104436;-78
2020/12/02 18:46:55;;;;;;;58.73;29.37;;;;;;;-2.55;68.89;99410.62;126084;1098;104532;-80
2020/12/02 18:49:35;;;;;;;57.07;27.23;;;;;;;-2.53;69.75;99421.01;126097;1098;104513;-77
2020/12/02 18:52:04;;;;;;;53.83;26.40;;;;;;;-2.53;68.63;99428.83;125880;1100;104560;-77
2020/12/02 18:54:32;;;;;;;57.00;28.30;;;;;;;-2.55;68.74;99421.05;126023;1098;104436;-75
2020/12/02 18:57:20;;;;;;;56.40;28.63;;;;;;;-2.52;68.86;99416.67;126064;1098;104522;-77
2020/12/02 18:59:48;;;;;;;53.23;27.17;;;;;;;-2.55;69.39;99421.05;126058;1098;104548;-76
2020/12/02 19:02:24;;;;;;;66.13;29.97;;;;;;;-2.62;69.50;99427.21;126091;1098;104417;-76
2020/12/02 19:05:19;;;;;;;59.70;30.70;;;;;;;-2.69;68.35;99425.56;126085;1098;104448;-77
2020/12/02 19:08:14;;;;;;;61.23;30.63;;;;;;;-2.78;68.53;99421.34;126132;1098;104491;-79
2020/12/02 19:10:43;;;;;;;63.73;31.23;;;;;;;-2.78;69.10;99415.26;126060;1100;104445;-76
2020/12/02 19:13:10;;;;;;;62.57;32.93;;;;;;;-2.77;69.69;99416.98;126044;1099;104478;-76
2020/12/02 19:15:46;;;;;;;60.50;30.90;;;;;;;-2.74;69.52;99414.34;126070;1098;104407;-79
2020/12/02 19:18:35;;;;;;;60.33;30.27;;;;;;;-2.72;69.30;99416.06;125930;1100;104557;-76
2020/12/02 19:21:39;;;;;;;61.77;31.10;;;;;;;-2.70;69.20;99408.22;125970;1098;104528;-77
2020/12/02 19:24:12;;;;;;;65.70;32.13;;;;;;;-2.65;68.55;99400.36;126098;1098;104407;-78
2020/12/02 19:27:07;;;;;;;65.85;32.63;;;;;;;-2.64;69.03;99399.45;126047;1098;104652;-78
2020/12/02 19:30:04;;;;;;;67.97;32.30;;;;;;;-2.61;69.02;99394.20;126086;1093;104414;-76
2020/12/02 19:32:45;;;;;;;63.53;31.87;;;;;;;-2.62;69.16;99388.14;126108;1099;104581;-76
2020/12/02 19:35:43;;;;;;;54.37;28.57;;;;;;;-2.60;69.15;99377.69;126031;1100;104608;-76
2020/12/02 19:38:17;;;;;;;54.77;28.73;;;;;;;-2.57;69.04;99380.25;126074;1098;104436;-75
2020/12/02 19:40:53;;;;;;;49.57;25.47;;;;;;;-2.60;68.92;99383.78;126180;1098;104471;-76
2020/12/02 19:43:39;;;;;;;57.07;27.90;;;;;;;-2.63;69.23;99388.15;126072;1098;104517;-75
2020/12/02 19:46:28;;;;;;;57.83;29.47;;;;;;;-2.67;68.79;99382.13;126049;1098;104619;-77
2020/12/02 19:48:56;;;;;;;60.80;29.30;;;;;;;-2.67;69.52;99395.16;125909;1093;104464;-76
2020/12/02 19:51:34;;;;;;;61.73;31.83;;;;;;;-2.70;69.69;99396.07;126103;1093;104520;-76
2020/12/02 19:54:12;;;;;;;60.43;32.00;;;;;;;-2.71;69.72;99391.75;125837;1100;104481;-77
2020/12/02 19:56:47;;;;;;;64.40;29.80;;;;;;;-2.77;69.06;99393.55;125999;1099;104411;-77
2020/12/02 19:59:22;;;;;;;65.03;32.10;;;;;;;-2.77;69.79;99388.34;125969;1098;104974;-77
2020/12/02 20:02:05;;;;;;;63.37;29.20;;;;;;;-2.74;69.46;99391.78;125777;1098;104904;-76
2020/12/02 20:05:06;;;;;;;61.10;30.83;;;;;;;-2.70;69.39;99389.98;125908;1093;104497;-77
2020/12/02 20:08:05;;;;;;;63.20;30.70;;;;;;;-2.66;69.49;99383.86;125945;1098;104530;-78
2020/12/02 20:10:45;;;;;;;64.60;32.50;;;;;;;-2.65;68.98;99377.77;125752;1098;104458;-76
2020/12/02 20:13:44;;;;;;;66.40;32.85;;;;;;;-2.62;69.89;99377.73;125951;1098;103473;-77
2020/12/02 20:16:36;;;;;;;60.87;29.97;;;;;;;-2.61;69.12;99373.36;125668;1099;106353;-77
2020/12/02 20:19:21;;;;;;;57.30;29.13;;;;;;;-2.57;69.04;99378.53;125989;1093;104413;-76
2020/12/02 20:22:19;;;;;;;58.35;29.72;;;;;;;-2.53;68.93;99381.09;125937;1098;104526;-75
2020/12/02 20:25:09;;;;;;;64.80;30.57;;;;;;;-2.51;70.05;99382.78;125949;1093;104501;-78
2020/12/02 20:27:38;;;;;;;57.60;30.57;;;;;;;-2.44;69.77;99380.94;126019;1098;104564;-77
2020/12/02 20:30:16;;;;;;;63.23;32.33;;;;;;;-2.34;69.77;99377.31;125897;1098;104411;-76
2020/12/02 20:32:44;;;;;;;59.30;28.57;;;;;;;-2.26;69.46;99375.46;126028;1099;104948;-75
2020/12/02 20:35:17;;;;;;;64.40;30.57;;;;;;;-2.15;70.28;99377.89;125995;1098;104608;-79
2020/12/02 20:37:50;;;;;;;58.23;28.77;;;;;;;-2.00;69.71;99381.99;126048;1098;105102;-83
2020/12/02 20:40:19;;;;;;;68.50;32.50;;;;;;;-1.90;69.51;99384.45;125597;1093;104480;-76
2020/12/02 20:42:55;;;;;;;76.43;38.50;;;;;;;-1.88;70.54;99387.90;125653;1098;104475;-78
2020/12/02 20:45:28;;;;;;;90.80;40.23;;;;;;;-1.87;70.05;99384.41;125770;1098;104446;-77
2020/12/02 20:48:17;;;;;;;100.65;45.70;;;;;;;-1.88;70.19;99385.30;125948;1098;104477;-76
2020/12/02 20:51:08;;;;;;;75.40;39.17;;;;;;;-1.97;70.25;99381.10;125862;1098;104420;-78
2020/12/02 20:53:40;;;;;;;97.47;49.07;;;;;;;-2.02;69.80;99377.70;125929;1099;104574;-76
2020/12/02 20:56:25;;;;;;;108.57;53.30;;;;;;;-2.05;69.16;99373.41;125786;1098;104420;-75
2020/12/02 20:58:55;;;;;;;102.63;50.33;;;;;;;-2.02;69.88;99368.13;125964;1093;104496;-77
2020/12/02 21:01:23;;;;;;;94.07;46.07;;;;;;;-1.96;70.27;99360.20;125832;1093;104439;-76
2020/12/02 21:03:56;;;;;;;93.63;42.37;;;;;;;-1.91;69.20;99361.88;125891;1099;104500;-76
2020/12/02 21:06:26;;;;;;;85.65;40.75;;;;;;;-1.88;70.03;99359.22;125612;1098;104509;-75
2020/12/02 21:08:53;;;;;;;80.73;39.07;;;;;;;-1.97;70.11;99363.70;125747;1098;104526;-74
2020/12/02 21:11:24;;;;;;;79.10;38.50;;;;;;;-1.99;70.28;99365.47;125971;1098;104592;-75
2020/12/02 21:13:52;;;;;;;85.43;39.90;;;;;;;-2.01;69.24;99359.41;126003;1098;104416;-77
2020/12/02 21:16:28;;;;;;;89.50;43.03;;;;;;;-2.05;69.67;99362.98;126050;1098;104904;-76
2020/12/02 21:19:06;;;;;;;88.83;42.17;;;;;;;-2.03;69.44;99358.58;125865;1098;104596;-76
2020/12/02 21:21:42;;;;;;;89.60;43.07;;;;;;;-2.10;69.96;99350.02;126076;1098;104525;-75
2020/12/02 21:24:45;;;;;;;90.43;42.47;;;;;;;-2.16;68.88;99350.11;126079;1098;104422;-74
2020/12/02 21:27:18;;;;;;;94.93;43.77;;;;;;;-2.21;69.29;99353.69;126011;1098;104501;-76
2020/12/02 21:30:05;;;;;;;97.42;48.95;;;;;;;-2.20;69.36;99352.80;126241;1098;104457;-74
2020/12/02 21:32:51;;;;;;;110.07;48.10;;;;;;;-2.25;68.89;99353.73;126186;1098;104650;-74
2020/12/02 21:35:33;;;;;;;103.10;46.23;;;;;;;-2.28;69.58;99355.54;126065;1098;104471;-74
2020/12/02 21:38:45;;;;;;;105.83;47.97;;;;;;;-2.28;70.39;99352.93;126031;1098;104417;-76
2020/12/02 21:41:39;;;;;;;103.53;47.37;;;;;;;-2.31;69.43;99337.34;126034;1094;104577;-76
2020/12/02 21:44:30;;;;;;;95.38;45.78;;;;;;;-2.24;70.58;99338.94;125943;1100;104459;-75
2020/12/02 21:46:57;;;;;;;102.17;46.97;;;;;;;-2.29;69.08;99325.16;126085;1098;104417;-74
2020/12/02 21:49:43;;;;;;;100.05;45.75;;;;;;;-2.23;69.53;99332.00;126049;1098;104413;-75
2020/12/02 21:52:32;;;;;;;93.20;43.20;;;;;;;-2.21;69.41;99331.08;126071;1093;104435;-74
2020/12/02 21:55:14;;;;;;;94.63;43.40;;;;;;;-2.21;70.08;99331.08;126092;1098;104422;-75
2020/12/02 21:57:42;;;;;;;104.83;48.43;;;;;;;-2.19;69.35;99321.48;126972;1098;104417;-74
2020/12/02 22:00:32;;;;;;;98.20;44.73;;;;;;;-2.25;68.87;99321.61;126073;1098;104538;-75
2020/12/02 22:03:11;;;;;;;160.53;75.07;;;;;;;-2.20;69.98;99324.97;125738;1093;104509;-75
2020/12/02 22:06:03;;;;;;;98.20;45.80;;;;;;;-2.14;70.27;99314.45;126086;1098;104872;-74
2020/12/02 22:08:34;;;;;;;113.70;49.85;;;;;;;-2.16;69.94;99320.59;125975;1098;104481;-75
2020/12/02 22:11:27;;;;;;;104.93;50.00;;;;;;;-2.19;70.49;99315.42;126076;1098;104552;-76
2020/12/02 22:14:07;;;;;;;105.43;50.67;;;;;;;-2.35;69.01;99313.06;126099;1100;104450;-75
2020/12/02 22:16:47;;;;;;;108.77;49.40;;;;;;;-2.41;68.85;99318.36;125992;1098;104506;-75
2020/12/02 22:19:24;;;;;;;106.55;47.50;;;;;;;-2.37;69.60;99325.25;126096;1093;104561;-75
2020/12/02 22:22:01;;;;;;;99.53;46.70;;;;;;;-2.36;69.32;99316.55;126056;1098;104417;-75
2020/12/02 22:24:50;;;;;;;91.33;41.30;;;;;;;-2.33;69.46;99321.72;126075;1093;104673;-76
2020/12/02 22:27:23;;;;;;;109.30;49.20;;;;;;;-2.32;70.47;99327.80;126097;1098;104589;-74
2020/12/02 22:29:51;;;;;;;111.72;48.98;;;;;;;-2.31;69.52;99327.77;125999;1098;105374;-74
2020/12/02 22:32:37;;;;;;;90.33;44.67;;;;;;;-2.25;70.07;99317.25;126148;1098;104576;-74
2020/12/02 22:35:26;;;;;;;92.63;46.37;;;;;;;-2.23;69.64;99318.97;126049;1098;104500;-75
2020/12/02 22:38:13;;;;;;;89.47;40.90;;;;;;;-2.28;69.32;99309.48;126119;1098;104478;-75
2020/12/02 22:41:07;;;;;;;86.83;41.80;;;;;;;-2.23;69.14;99303.33;126053;1098;104504;-75
2020/12/02 22:43:46;;;;;;;83.92;41.18;;;;;;;-2.20;70.20;99298.91;126009;1098;104942;-75
2020/12/02 22:46:35;;;;;;;85.33;40.27;;;;;;;-2.16;69.39;99295.38;126046;1098;104439;-75
2020/12/02 22:49:02;;;;;;;83.03;39.20;;;;;;;-2.15;70.40;99291.03;125963;1098;104616;-75
2020/12/02 22:51:30;;;;;;;83.23;37.63;;;;;;;-2.19;69.50;99289.37;126076;1094;104573;-76
2020/12/02 22:54:02;;;;;;;81.80;39.25;;;;;;;-2.28;69.06;99293.00;125927;1100;104416;-74
2020/12/02 22:56:29;;;;;;;115.50;55.17;;;;;;;-2.34;69.62;99275.70;126002;1098;104471;-75
2020/12/02 22:59:00;;;;;;;85.92;40.80;;;;;;;-2.27;69.31;99282.53;126062;1099;104433;-75
2020/12/02 23:01:28;;;;;;;89.43;42.90;;;;;;;-2.32;69.84;99279.14;126032;1098;104481;-75
2020/12/02 23:03:55;;;;;;;79.20;36.70;;;;;;;-2.43;68.71;99281.93;125850;1101;104416;-75
2020/12/02 23:06:34;;;;;;;82.47;38.43;;;;;;;-2.64;69.75;99280.53;126023;1098;104560;-75
2020/12/02 23:09:07;;;;;;;78.62;38.85;;;;;;;-2.76;69.54;99278.09;126031;1099;104420;-74
2020/12/02 23:11:51;;;;;;;78.63;38.20;;;;;;;-2.96;69.46;99273.19;125853;1100;104592;-75
2020/12/02 23:14:24;;;;;;;;;;;;;;;-2.97;69.67;99274.06;128193;1099;102496;-75
2020/12/02 23:16:58;;;;;;;82.37;39.03;;;;;;;-3.08;69.49;99274.22;126177;1093;104919;-75
2020/12/02 23:19:32;;;;;;;78.13;39.33;;;;;;;-3.19;69.65;99271.77;126110;1098;104459;-75
2020/12/02 23:22:08;;;;;;;82.87;42.30;;;;;;;-3.16;69.04;99272.58;125836;1094;104455;-74
2020/12/02 23:24:39;;;;;;;80.70;39.67;;;;;;;-3.12;69.58;99276.02;126072;1098;104453;-74
2020/12/02 23:27:21;;;;;;;69.57;34.33;;;;;;;-3.23;69.13;99270.94;126055;1098;104452;-74
2020/12/02 23:30:14;;;;;;;74.70;39.07;;;;;;;-3.50;69.38;99275.62;125883;1101;104420;-74
2020/12/02 23:33:15;;;;;;;66.67;32.73;;;;;;;-3.66;68.40;99268.86;126095;1098;104920;-74
2020/12/02 23:35:45;;;;;;;74.80;36.00;;;;;;;-3.81;68.53;99272.50;126813;1098;104526;-74
2020/12/02 23:38:20;;;;;;;73.80;33.83;;;;;;;-3.83;69.33;99282.05;125823;1099;104647;-73
2020/12/02 23:40:48;;;;;;;78.80;36.23;;;;;;;-3.89;68.94;99286.47;126081;1098;104545;-74
2020/12/02 23:43:42;;;;;;;80.97;38.03;;;;;;;-3.92;69.13;99281.30;126137;1098;104526;-74
2020/12/02 23:46:16;;;;;;;55.55;25.30;;;;;;;-3.97;69.54;99285.67;126695;1098;104481;-74
2020/12/02 23:49:16;;;;;;;66.57;29.53;;;;;;;-4.04;69.33;99287.45;126069;1098;104506;-74
2020/12/02 23:51:43;;;;;;;62.27;28.27;;;;;;;-4.22;68.79;99288.48;126049;1098;104388;-74
2020/12/02 23:54:10;;;;;;;78.92;35.58;;;;;;;-4.34;69.21;99284.27;126059;1098;104596;-74
2020/12/02 23:56:36;;;;;;;97.30;44.87;;;;;;;-4.38;68.80;99287.77;125899;1102;104480;-75
2020/12/02 23:59:03;;;;;;;88.73;39.77;;;;;;;-4.37;69.52;99294.68;126008;1098;105086;-75
